Time;durP1;ratioP1;P1;durP2;ratioP2;P2;SDS_P1;SDS_P2;PMS_P1;PMS_P2;Temp;Humidity;BMP_temperature;BMP_pressure;BME280_temperature;BME280_humidity;BME280_pressure;Samples;Min_cycle;Max_cycle;Signal;HPM_P1;HPM_P2
2022/07/23 00:00:16;;;;;;;15.07;13.48;;;31.10;1.00;;;;;;5011406;28;20120;-50
2022/07/23 00:02:43;;;;;;;37.35;30.50;;;31.10;1.00;;;;;;5011088;28;20026;-50
2022/07/23 00:05:09;;;;;;;27.95;25.20;;;31.10;1.00;;;;;;5010058;28;20475;-47
2022/07/23 00:07:35;;;;;;;31.85;28.38;;;31.10;1.00;;;;;;5078969;28;20120;-51
2022/07/23 00:10:01;;;;;;;36.05;30.98;;;31.10;1.00;;;;;;5078295;28;20156;-50
2022/07/23 00:12:27;;;;;;;22.08;19.08;;;31.00;1.00;;;;;;4997577;28;20038;-51
2022/07/23 00:14:52;;;;;;;14.18;12.70;;;31.00;1.00;;;;;;5007708;28;20068;-52
2022/07/23 00:17:18;;;;;;;45.90;41.20;;;31.10;1.00;;;;;;5006341;28;20106;-53
2022/07/23 00:19:44;;;;;;;19.58;17.08;;;30.90;1.00;;;;;;5002881;28;20073;-52
2022/07/23 00:22:09;;;;;;;27.77;24.08;;;30.80;1.00;;;;;;5064520;28;20378;-53
2022/07/23 00:24:35;;;;;;;23.58;20.33;;;30.90;1.00;;;;;;5010768;28;20521;-52
2022/07/23 00:27:01;;;;;;;33.95;29.27;;;30.90;1.00;;;;;;4997890;28;20503;-53
2022/07/23 00:29:26;;;;;;;10.07;8.65;;;31.00;1.00;;;;;;5005728;28;20061;-52
2022/07/23 00:31:52;;;;;;;19.95;15.40;;;31.00;1.00;;;;;;5011096;28;20037;-49
2022/07/23 00:34:17;;;;;;;34.33;30.35;;;31.00;1.00;;;;;;5010467;28;20026;-50
2022/07/23 00:36:43;;;;;;;15.40;12.45;;;30.90;1.00;;;;;;5006629;28;20113;-52
2022/07/23 00:39:09;;;;;;;14.70;13.23;;;31.00;1.00;;;;;;5006093;28;20061;-49
2022/07/23 00:41:34;;;;;;;9.18;8.23;;;30.90;1.00;;;;;;5068877;28;20030;-48
2022/07/23 00:44:23;;;;;;;11.77;7.40;;;31.00;1.00;;;;;;5002705;28;20071;-51
2022/07/23 00:46:54;;;;;;;8.80;7.78;;;30.90;1.00;;;;;;5007903;28;20488;-47
2022/07/23 00:49:25;;;;;;;8.25;7.53;;;30.90;1.00;;;;;;5008506;28;20018;-48
2022/07/23 00:51:51;;;;;;;12.07;8.52;;;30.90;1.00;;;;;;5010096;28;20424;-48
2022/07/23 00:54:18;;;;;;;8.57;7.60;;;30.90;1.00;;;;;;5010295;28;20054;-48
2022/07/23 00:56:45;;;;;;;8.48;7.68;;;31.00;1.00;;;;;;5009677;28;20054;-49
2022/07/23 00:59:11;;;;;;;8.05;7.40;;;30.80;1.00;;;;;;5010559;28;20034;-48
2022/07/23 01:01:37;;;;;;;9.48;7.47;;;30.80;1.00;;;;;;5007867;28;20056;-49
2022/07/23 01:04:03;;;;;;;8.60;7.53;;;31.00;1.00;;;;;;5012192;28;20109;-48
2022/07/23 01:06:29;;;;;;;8.55;7.70;;;31.00;1.00;;;;;;5008766;28;20033;-47
2022/07/23 01:08:55;;;;;;;8.43;7.63;;;30.90;1.00;;;;;;5009729;28;20502;-52
2022/07/23 01:11:23;;;;;;;7.30;6.65;;;30.90;1.00;;;;;;5009900;28;20482;-49
2022/07/23 01:13:49;;;;;;;9.70;8.65;;;30.70;1.00;;;;;;5009033;28;20078;-49
2022/07/23 01:16:14;;;;;;;8.88;7.40;;;30.70;1.00;;;;;;5009259;28;20355;-50
2022/07/23 01:18:40;;;;;;;9.75;8.73;;;30.70;1.00;;;;;;5002311;28;20491;-49
2022/07/23 01:21:06;;;;;;;9.18;7.57;;;30.70;1.00;;;;;;5010467;28;20029;-47
2022/07/23 01:23:32;;;;;;;9.48;8.52;;;30.70;1.00;;;;;;5009280;28;20084;-51
2022/07/23 01:25:57;;;;;;;9.77;8.15;;;30.70;1.00;;;;;;5010706;28;20034;-49
2022/07/23 01:28:23;;;;;;;9.30;7.85;;;30.80;1.00;;;;;;5009824;28;20328;-49
2022/07/23 01:30:49;;;;;;;11.25;7.78;;;30.80;1.00;;;;;;5009200;28;20713;-47
2022/07/23 01:33:14;;;;;;;9.10;8.13;;;30.70;1.00;;;;;;5009816;28;20025;-48
2022/07/23 01:35:40;;;;;;;9.43;7.85;;;30.70;1.00;;;;;;5078746;28;20031;-50
2022/07/23 01:38:06;;;;;;;12.35;8.55;;;30.80;1.00;;;;;;5010165;28;20049;-48
2022/07/23 01:40:31;;;;;;;9.27;8.32;;;30.80;1.00;;;;;;5009970;28;20360;-49
2022/07/23 01:42:57;;;;;;;8.88;7.95;;;30.80;1.00;;;;;;5055506;28;20084;-49
2022/07/23 01:45:23;;;;;;;9.57;8.68;;;30.70;1.00;;;;;;5006969;28;20026;-49
2022/07/23 01:47:49;;;;;;;9.90;8.07;;;30.70;1.00;;;;;;5010194;28;20125;-47
2022/07/23 01:50:15;;;;;;;10.10;8.18;;;30.70;1.00;;;;;;5009491;28;20030;-47
2022/07/23 01:52:40;;;;;;;9.82;8.80;;;30.70;1.00;;;;;;5008738;28;20083;-48
2022/07/23 01:55:08;;;;;;;9.50;7.78;;;30.70;1.00;;;;;;5009452;28;20033;-51
2022/07/23 01:57:34;;;;;;;8.10;7.40;;;30.70;1.00;;;;;;5010161;28;20424;-52
2022/07/23 01:59:59;;;;;;;9.50;8.60;;;30.70;1.00;;;;;;5011542;28;20083;-51
2022/07/23 02:02:25;;;;;;;9.60;7.95;;;30.70;1.00;;;;;;5009325;28;20018;-52
2022/07/23 02:04:50;;;;;;;9.15;8.25;;;30.80;1.00;;;;;;4992853;28;20344;-51
2022/07/23 02:07:16;;;;;;;8.82;8.02;;;30.80;1.00;;;;;;5004155;28;20681;-47
2022/07/23 02:09:42;;;;;;;10.30;7.60;;;30.70;1.00;;;;;;5008612;28;20030;-48
2022/07/23 02:12:07;;;;;;;8.90;8.02;;;30.70;1.00;;;;;;5009318;28;20030;-47
2022/07/23 02:14:33;;;;;;;8.48;7.32;;;30.80;1.00;;;;;;5064101;28;20463;-47
2022/07/23 02:16:59;;;;;;;8.77;8.00;;;30.80;1.00;;;;;;5009210;28;20030;-48
2022/07/23 02:19:25;;;;;;;9.05;8.10;;;30.70;1.00;;;;;;5008493;28;20120;-47
2022/07/23 02:21:50;;;;;;;8.75;7.88;;;30.80;1.00;;;;;;5009177;28;20022;-50
2022/07/23 02:24:16;;;;;;;7.88;7.18;;;30.70;1.00;;;;;;5009983;28;20090;-53
2022/07/23 02:26:42;;;;;;;8.82;7.97;;;30.80;1.00;;;;;;5009362;28;20048;-52
2022/07/23 02:29:08;;;;;;;8.88;8.10;;;30.80;1.00;;;;;;5004736;28;20596;-52
2022/07/23 02:31:33;;;;;;;10.10;7.95;;;30.80;1.00;;;;;;4989372;28;20034;-48
2022/07/23 02:33:59;;;;;;;11.80;9.05;;;30.70;1.00;;;;;;5002159;28;20119;-48
2022/07/23 02:36:25;;;;;;;8.85;8.07;;;30.70;1.00;;;;;;4998154;28;20037;-51
2022/07/23 02:38:51;;;;;;;9.52;8.63;;;30.70;1.00;;;;;;5009076;28;20022;-54
2022/07/23 02:41:17;;;;;;;8.82;8.02;;;30.60;1.00;;;;;;5008864;28;20071;-50
2022/07/23 02:43:42;;;;;;;10.38;8.50;;;30.70;1.00;;;;;;5008028;28;20026;-52
2022/07/23 02:46:08;;;;;;;9.15;8.25;;;30.70;1.00;;;;;;5008738;28;20065;-52
2022/07/23 02:48:33;;;;;;;8.85;7.53;;;30.80;1.00;;;;;;5009150;28;20026;-51
2022/07/23 02:50:59;;;;;;;9.05;8.25;;;30.80;1.00;;;;;;5008742;28;20037;-50
2022/07/23 02:53:25;;;;;;;9.55;8.13;;;30.90;1.00;;;;;;4998223;28;20099;-49
2022/07/23 02:55:51;;;;;;;11.57;8.57;;;30.70;1.00;;;;;;5008658;28;20117;-52
2022/07/23 02:58:16;;;;;;;10.20;8.00;;;30.60;1.00;;;;;;5008523;28;20050;-49
2022/07/23 03:00:42;;;;;;;8.45;7.82;;;30.60;1.00;;;;;;5008628;28;20029;-49
2022/07/23 03:03:08;;;;;;;9.68;8.63;;;30.60;1.00;;;;;;5008374;28;20030;-50
2022/07/23 03:05:34;;;;;;;8.65;7.90;;;30.60;1.00;;;;;;5008409;28;20026;-48
2022/07/23 03:08:00;;;;;;;9.30;8.27;;;30.70;1.00;;;;;;5008154;28;20022;-50
2022/07/23 03:10:26;;;;;;;10.18;8.40;;;30.60;1.00;;;;;;5008602;28;20041;-50
2022/07/23 03:12:51;;;;;;;10.32;8.80;;;30.50;1.00;;;;;;5010957;28;20097;-50
2022/07/23 03:15:17;;;;;;;9.10;8.18;;;30.60;1.00;;;;;;5012342;28;20494;-51
2022/07/23 03:17:43;;;;;;;11.48;8.50;;;30.50;1.00;;;;;;5011772;28;20026;-47
2022/07/23 03:20:09;;;;;;;11.75;9.07;;;30.50;1.00;;;;;;5010939;28;20033;-50
2022/07/23 03:22:35;;;;;;;9.43;8.48;;;30.50;1.00;;;;;;4998228;28;20014;-51
2022/07/23 03:25:00;;;;;;;10.07;9.20;;;30.50;1.00;;;;;;5011744;28;20093;-49
2022/07/23 03:27:28;;;;;;;9.32;8.38;;;30.50;1.00;;;;;;5011713;28;20346;-47
2022/07/23 03:29:56;;;;;;;10.25;8.40;;;30.50;1.00;;;;;;5011311;28;20061;-48
2022/07/23 03:32:22;;;;;;;9.10;8.10;;;30.60;1.00;;;;;;5011960;28;20079;-47
2022/07/23 03:34:48;;;;;;;9.60;8.68;;;30.50;1.00;;;;;;5014918;28;20069;-48
2022/07/23 03:37:14;;;;;;;10.43;8.60;;;30.40;1.00;;;;;;5011597;28;20421;-47
2022/07/23 03:39:40;;;;;;;9.20;8.30;;;30.30;1.00;;;;;;5011762;28;20090;-52
2022/07/23 03:42:07;;;;;;;8.85;7.97;;;30.40;1.00;;;;;;5011594;28;20119;-51
2022/07/23 03:44:33;;;;;;;9.18;8.32;;;30.30;1.00;;;;;;5002909;28;20034;-53
2022/07/23 03:46:58;;;;;;;10.57;8.63;;;30.40;1.00;;;;;;5068108;28;20358;-53
2022/07/23 03:49:24;;;;;;;10.80;9.00;;;30.40;1.00;;;;;;5010239;28;20132;-52
2022/07/23 03:51:50;;;;;;;9.13;8.13;;;30.30;1.00;;;;;;5011727;28;20143;-52
2022/07/23 03:54:16;;;;;;;9.30;8.35;;;30.30;1.00;;;;;;5010310;28;20494;-51
2022/07/23 03:56:42;;;;;;;10.15;8.73;;;30.30;1.00;;;;;;5011235;28;20025;-46
2022/07/23 03:59:08;;;;;;;12.38;8.50;;;30.30;1.00;;;;;;5009203;28;20519;-51
2022/07/23 04:01:34;;;;;;;8.80;8.10;;;30.30;1.00;;;;;;5008087;28;20382;-53
2022/07/23 04:04:00;;;;;;;8.80;8.00;;;30.20;1.00;;;;;;5005213;28;20048;-51
2022/07/23 04:06:26;;;;;;;9.10;7.78;;;30.30;1.00;;;;;;5011301;28;20475;-48
2022/07/23 04:08:52;;;;;;;9.25;8.35;;;30.30;1.00;;;;;;5011196;28;20062;-46
2022/07/23 04:11:18;;;;;;;9.82;8.30;;;30.20;1.00;;;;;;5076923;28;20026;-47
2022/07/23 04:13:43;;;;;;;9.52;8.63;;;30.20;1.00;;;;;;5008848;28;20030;-48
2022/07/23 04:16:09;;;;;;;9.10;8.32;;;30.10;1.00;;;;;;5011046;28;20034;-48
2022/07/23 04:18:34;;;;;;;9.82;8.63;;;30.20;1.00;;;;;;5010973;28;20057;-47
2022/07/23 04:21:00;;;;;;;9.60;8.80;;;30.30;1.00;;;;;;5010716;28;20037;-47
2022/07/23 04:23:26;;;;;;;9.55;8.65;;;30.30;1.00;;;;;;5011121;28;20026;-47
2022/07/23 04:25:51;;;;;;;9.65;8.38;;;30.10;1.00;;;;;;5001504;28;20026;-47
2022/07/23 04:28:17;;;;;;;9.05;8.15;;;30.00;1.00;;;;;;5002243;28;20034;-49
2022/07/23 04:30:42;;;;;;;9.75;8.85;;;30.00;1.00;;;;;;5010581;28;20351;-47
2022/07/23 04:33:08;;;;;;;8.77;7.97;;;30.10;1.00;;;;;;5078189;28;20132;-47
2022/07/23 04:35:35;;;;;;;9.13;8.30;;;30.10;1.00;;;;;;4996914;28;20498;-49
2022/07/23 04:38:00;;;;;;;9.30;8.35;;;30.10;1.00;;;;;;5010727;28;20022;-47
2022/07/23 04:40:27;;;;;;;9.70;7.78;;;30.10;1.00;;;;;;5005290;28;20460;-47
2022/07/23 04:42:53;;;;;;;10.27;8.70;;;30.10;1.00;;;;;;5002916;28;20371;-47
2022/07/23 04:45:19;;;;;;;9.55;8.48;;;30.20;1.00;;;;;;5010777;28;20026;-49
2022/07/23 04:47:45;;;;;;;9.27;8.13;;;30.20;1.00;;;;;;5010616;28;20029;-49
2022/07/23 04:50:10;;;;;;;8.45;7.50;;;30.10;1.00;;;;;;5011467;28;20037;-49
2022/07/23 04:52:36;;;;;;;10.10;9.05;;;30.00;1.00;;;;;;5077164;28;20041;-48
2022/07/23 04:55:03;;;;;;;9.27;8.32;;;30.10;1.00;;;;;;5065450;28;20046;-47
2022/07/23 04:57:28;;;;;;;9.30;8.02;;;30.10;1.00;;;;;;5008234;28;20048;-49
2022/07/23 04:59:54;;;;;;;10.20;9.23;;;30.10;1.00;;;;;;5011227;28;20038;-47
2022/07/23 05:02:19;;;;;;;9.20;8.30;;;30.10;1.00;;;;;;5066816;28;20029;-49
2022/07/23 05:04:45;;;;;;;9.45;8.35;;;30.10;1.00;;;;;;5065991;28;20037;-47
2022/07/23 05:07:11;;;;;;;9.35;8.40;;;30.10;1.00;;;;;;5075678;28;20040;-47
2022/07/23 05:09:36;;;;;;;9.45;8.63;;;30.10;1.00;;;;;;5010540;28;20034;-50
2022/07/23 05:12:02;;;;;;;10.80;8.10;;;30.00;1.00;;;;;;5010097;28;20026;-47
2022/07/23 05:14:28;;;;;;;9.35;8.48;;;30.00;1.00;;;;;;5009208;28;20061;-48
2022/07/23 05:16:54;;;;;;;9.68;8.48;;;30.00;1.00;;;;;;5010078;28;20026;-47
2022/07/23 05:19:20;;;;;;;12.20;8.68;;;29.80;1.00;;;;;;4997762;28;20496;-47
2022/07/23 05:21:45;;;;;;;10.10;9.07;;;29.70;1.00;;;;;;5010186;28;20026;-49
2022/07/23 05:24:11;;;;;;;11.10;8.88;;;29.80;1.00;;;;;;5010359;28;20040;-47
2022/07/23 05:26:37;;;;;;;11.43;9.40;;;29.80;1.00;;;;;;5009943;28;20022;-47
2022/07/23 05:29:02;;;;;;;11.32;8.10;;;29.90;1.00;;;;;;5009101;28;20026;-47
2022/07/23 05:31:28;;;;;;;9.27;8.32;;;29.90;1.00;;;;;;5009905;28;20033;-47
2022/07/23 05:33:53;;;;;;;9.05;8.10;;;29.70;1.00;;;;;;5006228;28;20034;-53
2022/07/23 05:36:19;;;;;;;9.48;7.05;;;29.80;1.00;;;;;;5008409;28;20501;-51
2022/07/23 05:38:45;;;;;;;8.18;7.25;;;29.70;1.00;;;;;;5008663;28;20026;-48
2022/07/23 05:41:10;;;;;;;9.43;7.47;;;29.70;1.00;;;;;;5077177;28;20094;-53
2022/07/23 05:43:36;;;;;;;7.68;6.70;;;29.50;1.00;;;;;;5076684;28;20513;-53
2022/07/23 05:46:01;;;;;;;8.30;6.70;;;29.70;1.00;;;;;;5004577;28;20018;-50
2022/07/23 05:48:27;;;;;;;9.50;6.85;;;29.60;1.00;;;;;;5009749;28;20430;-48
2022/07/23 05:50:53;;;;;;;12.23;6.40;;;29.80;1.00;;;;;;5003370;28;20030;-47
2022/07/23 05:53:18;;;;;;;8.55;5.97;;;29.80;1.00;;;;;;5009705;28;20105;-48
2022/07/23 05:55:44;;;;;;;10.40;5.82;;;30.00;1.00;;;;;;5009497;28;20060;-51
2022/07/23 05:58:10;;;;;;;7.20;6.05;;;29.80;1.00;;;;;;5009743;28;20029;-47
2022/07/23 06:00:35;;;;;;;6.63;6.00;;;30.00;1.00;;;;;;5001416;28;20033;-50
2022/07/23 06:03:01;;;;;;;7.88;5.30;;;30.10;1.00;;;;;;5008388;28;20026;-48
2022/07/23 06:05:27;;;;;;;7.43;5.38;;;30.10;1.00;;;;;;4994620;28;20156;-54
2022/07/23 06:07:53;;;;;;;8.35;6.15;;;30.10;1.00;;;;;;5001463;28;20066;-51
2022/07/23 06:10:18;;;;;;;8.23;5.47;;;30.00;1.00;;;;;;5009534;28;20037;-49
2022/07/23 06:12:44;;;;;;;7.07;5.63;;;30.20;1.00;;;;;;5009537;28;20399;-52
2022/07/23 06:15:10;;;;;;;5.65;4.88;;;30.20;1.00;;;;;;5008176;28;20042;-47
2022/07/23 06:17:38;;;;;;;6.28;5.00;;;30.10;1.00;;;;;;5009366;28;20022;-48
2022/07/23 06:20:05;;;;;;;6.30;5.25;;;30.30;1.00;;;;;;4998934;28;20064;-48
2022/07/23 06:22:31;;;;;;;6.20;5.20;;;30.30;1.00;;;;;;5002484;28;20026;-50
2022/07/23 06:24:56;;;;;;;5.20;4.75;;;30.10;1.00;;;;;;5000210;28;20040;-50
2022/07/23 06:27:22;;;;;;;7.28;4.95;;;30.40;1.00;;;;;;5009031;28;20383;-50
2022/07/23 06:29:47;;;;;;;6.03;5.05;;;30.40;1.00;;;;;;5009579;28;20037;-52
2022/07/23 06:32:13;;;;;;;6.03;4.95;;;30.50;1.00;;;;;;5008844;28;20483;-49
2022/07/23 06:34:39;;;;;;;7.22;4.80;;;30.80;1.00;;;;;;5007993;28;20029;-53
2022/07/23 06:37:05;;;;;;;6.80;4.25;;;30.90;1.00;;;;;;5008924;28;20037;-50
2022/07/23 06:39:30;;;;;;;7.40;5.38;;;31.00;1.00;;;;;;5073778;28;20383;-51
2022/07/23 06:41:56;;;;;;;6.07;5.05;;;30.90;1.00;;;;;;5008954;28;20073;-49
2022/07/23 06:44:22;;;;;;;5.70;5.07;;;30.80;1.00;;;;;;5007556;28;20030;-49
2022/07/23 06:46:48;;;;;;;8.77;5.10;;;30.90;1.00;;;;;;4995996;28;20026;-47
2022/07/23 06:49:13;;;;;;;8.13;4.93;;;31.00;1.00;;;;;;5011513;28;20092;-47
2022/07/23 06:51:39;;;;;;;5.32;4.93;;;31.10;1.00;;;;;;5007034;28;20037;-47
2022/07/23 06:54:04;;;;;;;8.05;4.82;;;30.80;1.00;;;;;;5011357;28;20098;-50
2022/07/23 06:56:30;;;;;;;9.68;5.18;;;30.80;1.00;;;;;;4998150;28;20107;-48
2022/07/23 06:58:56;;;;;;;6.90;4.90;;;30.60;1.00;;;;;;5012151;28;20478;-50
2022/07/23 07:01:21;;;;;;;7.25;5.65;;;30.80;1.00;;;;;;5012450;28;20062;-52
2022/07/23 07:03:47;;;;;;;6.82;5.18;;;30.80;1.00;;;;;;5012056;28;20183;-54
2022/07/23 07:06:13;;;;;;;6.10;5.55;;;30.80;1.00;;;;;;5012472;28;20041;-49
2022/07/23 07:08:39;;;;;;;7.40;5.90;;;30.80;1.00;;;;;;5080199;28;20018;-48
2022/07/23 07:11:04;;;;;;;10.85;6.43;;;30.70;1.00;;;;;;5012299;28;20086;-49
2022/07/23 07:13:30;;;;;;;7.22;5.97;;;30.80;1.00;;;;;;5011913;28;20456;-53
2022/07/23 07:15:56;;;;;;;5.85;5.35;;;30.70;1.00;;;;;;5010807;28;20042;-53
2022/07/23 07:18:22;;;;;;;8.05;6.32;;;30.80;1.00;;;;;;5009195;28;20115;-50
2022/07/23 07:20:48;;;;;;;8.10;6.43;;;30.60;1.00;;;;;;5008891;28;20030;-53
2022/07/23 07:23:14;;;;;;;8.82;6.03;;;30.70;1.00;;;;;;5011364;28;20026;-49
2022/07/23 07:25:40;;;;;;;7.78;7.05;;;30.80;1.00;;;;;;5012042;28;20114;-46
2022/07/23 07:28:06;;;;;;;7.15;6.55;;;30.90;1.00;;;;;;5010430;28;20014;-48
2022/07/23 07:30:31;;;;;;;7.22;6.57;;;31.00;1.00;;;;;;5011894;28;20082;-48
2022/07/23 07:32:57;;;;;;;7.82;7.05;;;31.10;1.00;;;;;;5065260;28;20074;-47
2022/07/23 07:35:22;;;;;;;7.05;6.40;;;31.00;1.00;;;;;;5011677;28;20034;-47
2022/07/23 07:37:48;;;;;;;8.20;7.35;;;31.10;1.00;;;;;;4996988;28;20042;-47
2022/07/23 07:40:14;;;;;;;8.75;7.88;;;31.10;1.00;;;;;;5011812;28;20028;-47
2022/07/23 07:42:51;;;;;;;7.82;7.13;;;30.90;1.00;;;;;;5011836;28;20041;-47
2022/07/23 07:45:19;;;;;;;8.35;7.65;;;30.90;1.00;;;;;;4999171;28;20033;-48
2022/07/23 07:47:45;;;;;;;10.02;7.53;;;30.90;1.00;;;;;;5009806;28;20379;-47
2022/07/23 07:50:10;;;;;;;7.63;6.88;;;30.80;1.00;;;;;;5011322;28;20026;-48
2022/07/23 07:52:36;;;;;;;8.15;7.22;;;30.80;1.00;;;;;;5011597;28;20030;-47
2022/07/23 07:55:08;;;;;;;7.97;7.18;;;30.70;1.00;;;;;;5011069;28;20044;-51
2022/07/23 07:57:33;;;;;;;7.90;6.90;;;30.60;1.00;;;;;;5003233;28;20023;-47
2022/07/23 07:59:59;;;;;;;8.63;7.80;;;30.60;1.00;;;;;;5004097;28;20057;-47
2022/07/23 08:02:25;;;;;;;8.63;7.50;;;30.60;1.00;;;;;;5011397;28;20087;-47
2022/07/23 08:04:51;;;;;;;7.72;7.03;;;30.70;1.00;;;;;;5010575;28;20056;-48
2022/07/23 08:07:16;;;;;;;8.27;7.57;;;30.80;1.00;;;;;;5011183;28;20037;-50
2022/07/23 08:09:42;;;;;;;10.23;7.55;;;30.80;1.00;;;;;;5006561;28;20034;-50
2022/07/23 08:12:08;;;;;;;10.23;7.60;;;30.80;1.00;;;;;;5011126;28;20068;-47
2022/07/23 08:14:33;;;;;;;8.43;7.45;;;30.80;1.00;;;;;;5011092;28;20376;-48
2022/07/23 08:16:59;;;;;;;8.18;7.47;;;30.80;1.00;;;;;;5003844;28;20084;-48
2022/07/23 08:19:25;;;;;;;7.97;7.32;;;30.80;1.00;;;;;;5009683;28;20030;-48
2022/07/23 08:21:50;;;;;;;9.55;7.50;;;30.90;1.00;;;;;;5010074;28;20030;-49
2022/07/23 08:24:16;;;;;;;8.65;7.82;;;31.00;1.00;;;;;;5010723;28;20049;-47
2022/07/23 08:26:41;;;;;;;8.40;7.55;;;31.00;1.00;;;;;;5010820;28;20026;-48
2022/07/23 08:29:07;;;;;;;10.60;7.80;;;31.20;1.00;;;;;;5078384;28;20021;-48
2022/07/23 08:31:33;;;;;;;9.75;8.18;;;31.40;1.00;;;;;;5008975;28;20518;-54
2022/07/23 08:33:59;;;;;;;12.25;7.72;;;31.50;1.00;;;;;;5002410;28;20030;-51
2022/07/23 08:36:27;;;;;;;9.35;8.25;;;31.30;1.00;;;;;;5011227;28;20033;-56
2022/07/23 08:38:53;;;;;;;8.80;7.97;;;31.10;1.00;;;;;;5006151;28;20030;-54
2022/07/23 08:41:19;;;;;;;8.00;7.22;;;31.20;1.00;;;;;;5011081;28;20062;-53
2022/07/23 08:43:45;;;;;;;12.15;8.68;;;31.50;1.00;;;;;;5010641;28;20088;-57
2022/07/23 08:46:13;;;;;;;7.97;7.40;;;31.40;1.00;;;;;;5010624;28;20097;-55
2022/07/23 08:48:39;;;;;;;9.18;8.27;;;31.70;1.00;;;;;;5009857;28;20036;-51
2022/07/23 08:51:06;;;;;;;8.85;8.15;;;31.50;1.00;;;;;;5010271;28;20497;-52
2022/07/23 08:53:35;;;;;;;9.60;8.68;;;31.70;1.00;;;;;;5004706;28;20034;-55
2022/07/23 08:56:02;;;;;;;9.48;8.27;;;31.70;1.00;;;;;;5001028;28;20045;-50
2022/07/23 08:58:29;;;;;;;10.07;9.15;;;31.80;1.00;;;;;;5008720;28;20055;-52
2022/07/23 09:00:56;;;;;;;12.88;9.48;;;31.80;1.00;;;;;;5000437;28;20032;-56
2022/07/23 09:03:27;;;;;;;9.80;9.00;;;31.60;1.00;;;;;;4994672;28;20483;-55
2022/07/23 09:05:56;;;;;;;9.95;9.05;;;31.80;1.00;;;;;;5009485;28;20045;-57
2022/07/23 09:08:43;;;;;;;10.80;9.88;;;32.30;1.00;;;;;;5009611;28;20383;-54
2022/07/23 09:11:11;;;;;;;10.45;9.52;;;32.10;1.00;;;;;;5009924;28;20034;-52
2022/07/23 09:13:58;;;;;;;9.18;8.48;;;32.20;1.00;;;;;;5009208;28;20151;-56
2022/07/23 09:16:27;;;;;;;10.68;9.65;;;32.20;1.00;;;;;;4999077;28;20034;-55
2022/07/23 09:18:56;;;;;;;10.02;9.23;;;32.30;1.00;;;;;;5006238;28;20026;-56
2022/07/23 09:21:24;;;;;;;12.93;10.18;;;32.40;1.00;;;;;;5010236;28;20021;-56
2022/07/23 09:24:06;;;;;;;11.38;9.95;;;32.50;1.00;;;;;;5010954;28;20049;-56
2022/07/23 09:26:46;;;;;;;9.32;8.73;;;32.50;1.00;;;;;;4997252;28;20038;-55
2022/07/23 09:29:25;;;;;;;11.38;10.25;;;32.60;1.00;;;;;;5010027;28;20045;-49
2022/07/23 09:32:00;;;;;;;10.23;9.23;;;32.60;1.00;;;;;;4998309;28;20034;-51
2022/07/23 09:34:40;;;;;;;11.20;10.20;;;32.50;1.00;;;;;;4993911;28;20045;-49
2022/07/23 09:37:13;;;;;;;12.15;10.57;;;32.70;1.00;;;;;;4997723;28;20482;-49
2022/07/23 09:39:40;;;;;;;11.05;9.95;;;32.70;1.00;;;;;;5073852;28;20034;-47
2022/07/23 09:42:23;;;;;;;12.15;11.00;;;32.70;1.00;;;;;;5076146;28;20022;-51
2022/07/23 09:44:51;;;;;;;15.57;9.95;;;32.50;1.00;;;;;;5076716;28;20421;-48
2022/07/23 09:47:17;;;;;;;11.38;10.38;;;32.50;1.00;;;;;;5009589;28;20034;-49
2022/07/23 09:50:08;;;;;;;11.07;9.82;;;32.60;1.00;;;;;;5072139;28;20137;-52
2022/07/23 09:52:46;;;;;;;11.40;10.23;;;32.50;1.00;;;;;;4997539;28;20429;-49
2022/07/23 09:55:12;;;;;;;13.27;10.40;;;32.50;1.00;;;;;;4994677;28;20124;-53
2022/07/23 09:57:40;;;;;;;11.38;10.38;;;32.60;1.00;;;;;;5010101;28;20079;-50
2022/07/23 10:00:11;;;;;;;11.05;10.02;;;32.90;1.00;;;;;;5002751;28;20027;-49
2022/07/23 10:02:37;;;;;;;12.05;11.07;;;32.90;1.00;;;;;;5009509;28;20026;-49
2022/07/23 10:05:04;;;;;;;11.25;10.02;;;32.90;1.00;;;;;;5008913;28;20463;-50
2022/07/23 10:07:34;;;;;;;10.30;9.45;;;32.90;1.00;;;;;;4996828;28;20421;-49
2022/07/23 10:10:01;;;;;;;11.02;10.18;;;32.90;1.00;;;;;;5076651;28;20030;-48
2022/07/23 10:15:00;;;;;;;12.15;10.85;;;33.10;1.00;;;;;;5017276;28;20141;-50
2022/07/23 10:17:30;;;;;;;11.48;10.48;;;33.00;1.00;;;;;;5007475;28;20365;-48
2022/07/23 10:19:56;;;;;;;11.98;10.57;;;33.40;1.00;;;;;;5008882;28;20028;-51
2022/07/23 10:22:26;;;;;;;11.68;10.70;;;33.30;1.00;;;;;;5012218;28;20479;-50
2022/07/23 10:25:18;;;;;;;11.32;10.32;;;33.20;1.00;;;;;;5012200;28;20052;-51
2022/07/23 10:28:21;;;;;;;12.77;11.48;;;33.20;1.00;;;;;;5010793;28;20014;-48
2022/07/23 10:31:10;;;;;;;11.82;10.68;;;33.40;1.00;;;;;;5011914;28;20025;-51
2022/07/23 10:33:54;;;;;;;11.55;10.60;;;33.50;1.00;;;;;;5011526;28;20033;-53
2022/07/23 10:36:36;;;;;;;11.18;10.25;;;33.50;1.00;;;;;;4999048;28;20394;-49
2022/07/23 10:39:14;;;;;;;10.88;9.82;;;33.60;1.00;;;;;;4998703;28;20026;-53
2022/07/23 10:41:41;;;;;;;11.13;10.23;;;33.70;1.00;;;;;;4994058;28;20023;-48
2022/07/23 10:44:25;;;;;;;12.45;11.27;;;33.50;1.00;;;;;;5001047;28;20030;-51
2022/07/23 10:49:31;;;;;;;12.02;11.05;;;33.90;1.00;;;;;;5008756;28;20115;-48
2022/07/23 10:52:17;;;;;;;10.80;9.88;;;34.00;1.00;;;;;;5079923;28;20447;-48
2022/07/23 10:54:43;;;;;;;11.10;10.00;;;34.10;1.00;;;;;;4997552;28;20022;-50
2022/07/23 10:57:11;;;;;;;11.32;10.38;;;34.30;1.00;;;;;;5079764;28;20395;-52
2022/07/23 11:00:22;;;;;;;11.75;10.77;;;34.50;1.00;;;;;;5078563;28;20352;-49
2022/07/23 11:02:50;;;;;;;11.98;10.85;;;34.30;1.00;;;;;;5011857;28;20068;-49
2022/07/23 11:05:19;;;;;;;11.60;10.60;;;34.30;1.00;;;;;;5011592;28;20025;-52
2022/07/23 11:08:03;;;;;;;11.98;11.07;;;34.20;1.00;;;;;;5011648;28;20030;-47
2022/07/23 11:10:37;;;;;;;11.70;10.77;;;34.20;1.00;;;;;;5000303;28;20029;-52
2022/07/23 11:13:21;;;;;;;11.80;10.80;;;34.40;1.00;;;;;;5011606;28;20037;-50
2022/07/23 11:16:05;;;;;;;11.15;10.18;;;34.50;1.00;;;;;;5079278;28;20490;-52
2022/07/23 11:18:40;;;;;;;11.95;10.60;;;34.60;1.00;;;;;;5010566;28;20113;-53
2022/07/23 11:21:23;;;;;;;12.80;10.57;;;34.70;1.00;;;;;;5011328;28;20133;-49
2022/07/23 11:24:06;;;;;;;;;;;34.90;1.00;;;;;;5008353;28;20129;-51
2022/07/23 11:26:41;;;;;;;11.98;10.88;;;35.00;1.00;;;;;;5011206;28;19906;-48
2022/07/23 11:29:28;;;;;;;11.70;10.82;;;34.70;1.00;;;;;;5010082;28;20032;-53
2022/07/23 11:32:24;;;;;;;11.88;10.15;;;34.70;1.00;;;;;;5013352;28;20032;-49
2022/07/23 11:34:53;;;;;;;12.55;11.35;;;34.90;1.00;;;;;;4994833;28;20090;-48
2022/07/23 11:37:35;;;;;;;12.95;11.05;;;34.90;1.00;;;;;;4998781;28;20022;-50
2022/07/23 11:40:03;;;;;;;10.93;10.00;;;35.20;1.00;;;;;;4998433;28;20114;-48
2022/07/23 11:42:29;;;;;;;11.55;10.40;;;35.50;1.00;;;;;;5001220;28;20030;-48
2022/07/23 11:44:55;;;;;;;11.75;10.75;;;35.20;1.00;;;;;;5010441;28;20018;-52
2022/07/23 11:47:25;;;;;;;13.25;11.32;;;35.10;1.00;;;;;;5011344;28;20045;-48
2022/07/23 11:49:56;;;;;;;12.07;10.88;;;35.70;1.00;;;;;;5010603;28;20098;-48
2022/07/23 11:52:23;;;;;;;11.70;10.63;;;37.40;1.00;;;;;;5005971;28;20045;-53
2022/07/23 11:55:04;;;;;;;11.90;10.90;;;38.50;1.00;;;;;;5010501;28;20105;-48
2022/07/23 11:57:33;;;;;;;11.65;10.85;;;38.50;1.00;;;;;;5010278;28;20376;-50
2022/07/23 12:00:08;;;;;;;11.75;10.65;;;40.00;1.00;;;;;;5010311;28;20021;-48
2022/07/23 12:02:34;;;;;;;12.18;10.98;;;40.30;1.00;;;;;;5010042;28;20083;-48
2022/07/23 12:04:59;;;;;;;12.00;10.95;;;41.10;1.00;;;;;;5007074;28;20406;-50
2022/07/23 12:07:37;;;;;;;12.10;11.10;;;41.60;1.00;;;;;;5000870;28;20071;-49
2022/07/23 12:10:11;;;;;;;11.73;10.70;;;41.90;1.00;;;;;;5010404;28;20026;-51
2022/07/23 12:12:46;;;;;;;11.95;10.95;;;42.00;1.00;;;;;;5006990;28;20544;-47
2022/07/23 12:15:14;;;;;;;12.23;11.13;;;41.60;1.00;;;;;;5009939;28;20034;-49
2022/07/23 12:17:42;;;;;;;12.52;11.45;;;40.60;1.00;;;;;;5011015;28;20022;-47
2022/07/23 12:20:12;;;;;;;12.48;11.15;;;40.40;1.00;;;;;;5010792;28;20076;-47
2022/07/23 12:22:43;;;;;;;12.00;11.07;;;38.70;1.00;;;;;;5005120;28;20035;-47
2022/07/23 12:25:15;;;;;;;12.57;11.32;;;37.80;1.00;;;;;;4999338;28;20027;-52
2022/07/23 12:27:41;;;;;;;12.13;11.13;;;37.00;1.00;;;;;;5009526;28;20146;-52
2022/07/23 12:30:25;;;;;;;12.60;11.60;;;36.80;1.00;;;;;;5010166;28;20026;-48
2022/07/23 12:32:53;;;;;;;;;;;35.90;1.00;;;;;;5009797;28;20021;-48
2022/07/23 12:35:20;;;;;;;11.88;10.90;;;35.70;1.00;;;;;;5010198;28;19917;-47
2022/07/23 12:37:47;;;;;;;11.45;10.48;;;35.60;1.00;;;;;;5009967;28;20077;-47
2022/07/23 12:40:35;;;;;;;10.73;9.93;;;35.70;1.00;;;;;;5010471;28;20417;-48
2022/07/23 12:43:08;;;;;;;22.38;11.80;;;35.90;1.00;;;;;;5010376;28;20022;-47
2022/07/23 12:46:03;;;;;;;12.63;11.35;;;35.60;1.00;;;;;;5008798;28;20056;-50
2022/07/23 12:48:30;;;;;;;12.40;11.38;;;35.40;1.00;;;;;;5010605;28;20063;-50
2022/07/23 12:51:00;;;;;;;11.52;10.55;;;35.90;1.00;;;;;;5077412;28;20026;-48
2022/07/23 12:53:42;;;;;;;12.15;11.15;;;36.30;1.00;;;;;;5009471;28;20516;-50
2022/07/23 12:56:10;;;;;;;13.45;12.38;;;35.90;1.00;;;;;;4996079;28;20449;-49
2022/07/23 12:58:57;;;;;;;15.50;12.73;;;35.10;1.00;;;;;;5002813;28;20030;-50
2022/07/23 13:01:24;;;;;;;13.35;12.25;;;35.20;1.00;;;;;;4997584;28;20050;-53